Time;durP1;ratioP1;P1;durP2;ratioP2;P2;SDS_P1;SDS_P2;PMS_P1;PMS_P2;Temp;Humidity;BMP_temperature;BMP_pressure;BME280_temperature;BME280_humidity;BME280_pressure;Samples;Min_cycle;Max_cycle;Signal;HPM_P1;HPM_P2
2023/02/06 00:01:56;;;;;;;12.43;11.33;;;;;;;;;;5052703;28;20461;-85
2023/02/06 00:04:22;;;;;;;11.60;10.55;;;;;;;;;;5053009;28;20385;-85
2023/02/06 00:06:48;;;;;;;11.98;10.93;;;;;;;;;;5052660;28;20378;-85
2023/02/06 00:09:14;;;;;;;9.48;8.75;;;;;;;;;;5052471;28;20384;-85
2023/02/06 00:11:40;;;;;;;10.57;9.68;;;;;;;;;;5052343;28;20380;-85
2023/02/06 00:14:06;;;;;;;10.70;9.70;;;;;;;;;;5052114;28;20417;-85
2023/02/06 00:16:33;;;;;;;10.65;9.80;;;;;;;;;;5052346;28;20369;-85
2023/02/06 00:19:00;;;;;;;10.45;9.55;;;;;;;;;;5052862;28;20393;-85
2023/02/06 00:21:26;;;;;;;9.32;8.52;;;;;;;;;;5052474;28;20385;-84
2023/02/06 00:23:53;;;;;;;10.30;9.40;;;;;;;;;;5052361;28;20385;-85
2023/02/06 00:26:20;;;;;;;9.57;8.88;;;;;;;;;;5052546;28;20874;-84
2023/02/06 00:28:46;;;;;;;10.20;9.30;;;;;;;;;;5052075;28;20419;-85
2023/02/06 00:31:12;;;;;;;10.50;9.60;;;;;;;;;;5051825;28;20377;-85
2023/02/06 00:33:38;;;;;;;9.93;9.13;;;;;;;;;;5052136;28;20416;-85
2023/02/06 00:36:04;;;;;;;10.50;9.60;;;;;;;;;;5051664;28;20443;-86
2023/02/06 00:38:31;;;;;;;10.02;9.32;;;;;;;;;;5051906;28;20439;-85
2023/02/06 00:40:57;;;;;;;9.68;8.93;;;;;;;;;;5052015;28;20384;-85
2023/02/06 00:43:23;;;;;;;10.70;9.90;;;;;;;;;;5052110;28;20469;-85
2023/02/06 00:45:52;;;;;;;17.88;15.68;;;;;;;;;;5052075;28;20865;-85
2023/02/06 00:48:18;;;;;;;15.88;14.30;;;;;;;;;;5052099;28;20433;-85
2023/02/06 00:50:44;;;;;;;13.10;11.98;;;;;;;;;;5052320;28;20488;-84
2023/02/06 00:53:10;;;;;;;11.77;10.88;;;;;;;;;;5034270;28;20815;-85
2023/02/06 00:55:36;;;;;;;10.75;9.95;;;;;;;;;;5049751;28;20377;-85
2023/02/06 00:58:02;;;;;;;9.88;9.18;;;;;;;;;;5047926;28;20464;-84
2023/02/06 01:00:28;;;;;;;19.75;16.48;;;;;;;;;;5045927;28;20468;-84
2023/02/06 01:02:54;;;;;;;10.43;9.63;;;;;;;;;;5032054;28;20975;-84
2023/02/06 01:05:20;;;;;;;12.82;11.93;;;;;;;;;;5041397;28;20390;-85
2023/02/06 01:07:46;;;;;;;10.80;10.00;;;;;;;;;;5040799;28;20671;-85
2023/02/06 01:10:13;;;;;;;11.82;10.93;;;;;;;;;;5041655;28;20426;-85
2023/02/06 01:12:39;;;;;;;10.40;9.60;;;;;;;;;;5034839;28;20387;-85
2023/02/06 01:15:06;;;;;;;10.65;9.75;;;;;;;;;;5048966;28;20802;-85
2023/02/06 01:17:32;;;;;;;10.23;9.50;;;;;;;;;;5049665;28;20426;-85
2023/02/06 01:19:59;;;;;;;11.23;10.38;;;;;;;;;;5049781;28;20381;-84
2023/02/06 01:22:28;;;;;;;11.75;10.68;;;;;;;;;;5049482;28;20409;-84
2023/02/06 01:24:54;;;;;;;12.13;11.23;;;;;;;;;;5031038;28;20437;-86
2023/02/06 01:27:20;;;;;;;12.55;11.55;;;;;;;;;;5032283;28;20862;-84
2023/02/06 01:29:46;;;;;;;11.98;11.05;;;;;;;;;;5052648;28;20382;-84
2023/02/06 01:32:12;;;;;;;12.00;11.10;;;;;;;;;;5022434;28;20394;-84
2023/02/06 01:34:38;;;;;;;12.15;11.20;;;;;;;;;;5051342;28;20421;-85
2023/02/06 01:37:04;;;;;;;12.73;11.73;;;;;;;;;;5035616;28;20420;-85
2023/02/06 01:39:30;;;;;;;12.75;11.75;;;;;;;;;;5052657;28;20427;-85
2023/02/06 01:41:56;;;;;;;12.30;11.40;;;;;;;;;;5053067;28;20742;-85
2023/02/06 01:44:23;;;;;;;12.40;11.50;;;;;;;;;;5053584;28;20385;-84
2023/02/06 01:46:53;;;;;;;11.70;10.75;;;;;;;;;;5052701;28;20395;-84
2023/02/06 01:49:19;;;;;;;10.85;10.05;;;;;;;;;;5052368;28;20389;-84
2023/02/06 01:51:45;;;;;;;11.70;10.80;;;;;;;;;;5053250;28;20389;-85
2023/02/06 01:54:13;;;;;;;10.45;9.70;;;;;;;;;;5053015;28;20488;-85
2023/02/06 01:56:43;;;;;;;10.95;10.15;;;;;;;;;;5052719;28;20898;-84
2023/02/06 01:59:09;;;;;;;10.52;9.73;;;;;;;;;;5052610;28;20472;-85
2023/02/06 02:01:35;;;;;;;10.60;9.77;;;;;;;;;;5056455;28;20380;-85
2023/02/06 02:04:04;;;;;;;10.70;9.90;;;;;;;;;;5056288;28;20457;-85
2023/02/06 02:06:30;;;;;;;10.85;10.07;;;;;;;;;;5054655;28;20424;-84
2023/02/06 02:08:57;;;;;;;10.48;9.73;;;;;;;;;;5055023;28;20472;-84
2023/02/06 02:11:26;;;;;;;10.95;10.15;;;;;;;;;;5054962;28;20431;-84
2023/02/06 02:13:53;;;;;;;9.83;9.13;;;;;;;;;;5037226;28;20943;-85
2023/02/06 02:16:31;;;;;;;9.80;9.10;;;;;;;;;;5054817;28;20476;-84
2023/02/06 02:19:09;;;;;;;10.50;9.70;;;;;;;;;;5054333;28;20506;-85
2023/02/06 02:21:47;;;;;;;10.57;9.77;;;;;;;;;;5054378;28;20471;-84
2023/02/06 02:24:13;;;;;;;10.45;9.65;;;;;;;;;;5037075;28;20438;-84
2023/02/06 02:26:45;;;;;;;10.25;9.55;;;;;;;;;;5054549;28;20467;-84
2023/02/06 02:29:14;;;;;;;10.20;9.50;;;;;;;;;;5054403;28;20497;-84
2023/02/06 02:31:49;;;;;;;10.55;9.75;;;;;;;;;;5054313;28;20460;-84
2023/02/06 02:34:34;;;;;;;10.70;9.90;;;;;;;;;;5054105;28;20482;-85
2023/02/06 02:37:09;;;;;;;9.50;8.80;;;;;;;;;;5054608;28;20448;-84
2023/02/06 02:39:41;;;;;;;9.17;8.57;;;;;;;;;;5059175;28;20441;-83
2023/02/06 02:42:25;;;;;;;8.67;8.07;;;;;;;;;;5056215;28;20520;-85
2023/02/06 02:45:00;;;;;;;8.60;8.00;;;;;;;;;;5048303;28;20442;-84
2023/02/06 02:47:30;;;;;;;11.13;10.32;;;;;;;;;;5053378;28;20430;-85
2023/02/06 02:49:57;;;;;;;10.00;9.30;;;;;;;;;;5054992;28;20448;-84
2023/02/06 02:52:22;;;;;;;9.88;9.18;;;;;;;;;;5054454;28;20439;-85
2023/02/06 02:54:48;;;;;;;10.10;9.40;;;;;;;;;;5054032;28;20397;-84
2023/02/06 02:57:19;;;;;;;10.90;10.10;;;;;;;;;;5054300;28;20439;-85
2023/02/06 02:59:46;;;;;;;11.90;11.00;;;;;;;;;;5036463;28;20434;-84
2023/02/06 03:02:15;;;;;;;12.35;11.45;;;;;;;;;;5036236;28;20924;-84
2023/02/06 03:04:47;;;;;;;11.18;10.32;;;;;;;;;;5032405;28;20871;-84
2023/02/06 03:07:25;;;;;;;11.18;10.38;;;;;;;;;;5053939;28;20426;-84
2023/02/06 03:10:05;;;;;;;10.82;10.02;;;;;;;;;;5053562;28;20390;-85
2023/02/06 03:12:37;;;;;;;10.63;9.93;;;;;;;;;;5052708;28;20920;-84
2023/02/06 03:15:05;;;;;;;9.93;9.23;;;;;;;;;;5053425;28;20400;-84
2023/02/06 03:17:37;;;;;;;10.77;9.98;;;;;;;;;;5053816;28;20419;-84
2023/02/06 03:20:03;;;;;;;10.45;9.73;;;;;;;;;;5053548;28;20459;-85
2023/02/06 03:22:31;;;;;;;10.90;10.10;;;;;;;;;;5035829;28;20393;-84
2023/02/06 03:24:57;;;;;;;10.63;9.82;;;;;;;;;;5052763;28;20979;-84
2023/02/06 03:27:25;;;;;;;10.45;9.65;;;;;;;;;;5043625;28;20398;-84
2023/02/06 03:29:52;;;;;;;10.90;10.10;;;;;;;;;;5052883;28;20381;-84
2023/02/06 03:32:22;;;;;;;11.43;10.63;;;;;;;;;;5053093;28;20404;-85
2023/02/06 03:35:07;;;;;;;10.70;9.90;;;;;;;;;;5053037;28;20464;-84
2023/02/06 03:37:35;;;;;;;11.00;10.20;;;;;;;;;;5052885;28;20430;-84
2023/02/06 03:40:01;;;;;;;12.43;11.43;;;;;;;;;;5053279;28;20385;-84
2023/02/06 03:42:29;;;;;;;11.75;10.85;;;;;;;;;;5052843;28;20373;-84
2023/02/06 03:45:01;;;;;;;11.52;10.68;;;;;;;;;;5053019;28;20469;-85
2023/02/06 03:47:27;;;;;;;11.57;10.77;;;;;;;;;;5052925;28;20949;-84
2023/02/06 03:49:55;;;;;;;11.27;10.47;;;;;;;;;;5053043;28;20377;-85
2023/02/06 03:52:24;;;;;;;11.60;10.80;;;;;;;;;;5052891;28;20515;-84
2023/02/06 03:55:01;;;;;;;11.45;10.65;;;;;;;;;;5052776;28;20461;-84
2023/02/06 03:57:27;;;;;;;11.57;10.68;;;;;;;;;;5052693;28;20481;-84
2023/02/06 03:59:54;;;;;;;11.43;10.60;;;;;;;;;;5052574;28;20460;-85
2023/02/06 04:02:21;;;;;;;12.35;11.35;;;;;;;;;;5052793;28;20419;-84
2023/02/06 04:04:47;;;;;;;12.68;11.68;;;;;;;;;;5052455;28;20435;-84
2023/02/06 04:07:24;;;;;;;12.50;11.60;;;;;;;;;;5052955;28;20385;-84
2023/02/06 04:09:50;;;;;;;11.73;10.93;;;;;;;;;;5052846;28;20389;-84
2023/02/06 04:12:16;;;;;;;11.40;10.60;;;;;;;;;;5052689;28;20393;-85
2023/02/06 04:14:43;;;;;;;11.10;10.27;;;;;;;;;;5052580;28;20484;-84
2023/02/06 04:17:09;;;;;;;10.82;10.02;;;;;;;;;;5052437;28;20377;-84
2023/02/06 04:19:37;;;;;;;9.68;8.98;;;;;;;;;;5052383;28;20388;-84
2023/02/06 04:22:03;;;;;;;10.60;9.90;;;;;;;;;;5051573;28;20423;-84
2023/02/06 04:24:29;;;;;;;10.85;10.05;;;;;;;;;;5052380;28;20456;-84
2023/02/06 04:26:55;;;;;;;10.48;9.77;;;;;;;;;;5052315;28;20398;-84
2023/02/06 04:29:21;;;;;;;10.25;9.48;;;;;;;;;;5052296;28;20451;-84
2023/02/06 04:31:47;;;;;;;10.68;9.88;;;;;;;;;;5050057;28;20378;-84
2023/02/06 04:34:13;;;;;;;9.47;8.77;;;;;;;;;;5033854;28;20484;-84
2023/02/06 04:36:39;;;;;;;9.00;8.40;;;;;;;;;;5052260;28;20394;-85
2023/02/06 04:39:06;;;;;;;10.07;9.38;;;;;;;;;;5052005;28;20945;-84
2023/02/06 04:41:32;;;;;;;10.73;9.93;;;;;;;;;;5049309;28;20444;-84
2023/02/06 04:43:58;;;;;;;10.25;9.45;;;;;;;;;;5037647;28;20391;-84
2023/02/06 04:46:24;;;;;;;10.13;9.43;;;;;;;;;;5033837;28;20397;-84
2023/02/06 04:48:50;;;;;;;9.60;8.90;;;;;;;;;;5046040;28;20858;-84
2023/02/06 04:51:16;;;;;;;10.63;9.73;;;;;;;;;;5050893;28;21121;-83
2023/02/06 04:53:42;;;;;;;10.40;9.63;;;;;;;;;;5029405;28;20495;-84
2023/02/06 04:56:09;;;;;;;11.05;10.15;;;;;;;;;;5050234;28;20824;-84
2023/02/06 04:58:35;;;;;;;10.63;9.82;;;;;;;;;;5049951;28;20391;-84
2023/02/06 05:01:01;;;;;;;10.98;10.18;;;;;;;;;;5049128;28;20400;-84
2023/02/06 05:03:28;;;;;;;11.05;10.25;;;;;;;;;;5049509;28;20389;-84
2023/02/06 05:05:55;;;;;;;11.53;10.63;;;;;;;;;;5050532;28;20409;-84
2023/02/06 05:08:21;;;;;;;12.03;11.13;;;;;;;;;;5049692;28;20487;-84
2023/02/06 05:10:47;;;;;;;12.48;11.48;;;;;;;;;;5048639;28;20393;-84
2023/02/06 05:13:13;;;;;;;16.73;15.10;;;;;;;;;;5045455;28;20472;-84
2023/02/06 05:15:39;;;;;;;22.70;18.15;;;;;;;;;;5046755;28;20393;-84
2023/02/06 05:18:05;;;;;;;15.38;14.05;;;;;;;;;;5025584;28;20408;-82
2023/02/06 05:20:31;;;;;;;14.25;13.05;;;;;;;;;;5045701;28;20377;-81
2023/02/06 05:22:58;;;;;;;13.55;12.48;;;;;;;;;;5047508;28;20386;-82
2023/02/06 05:25:24;;;;;;;14.68;13.38;;;;;;;;;;5049191;28;21105;-83
2023/02/06 05:27:50;;;;;;;13.27;12.18;;;;;;;;;;5047834;28;20381;-82
2023/02/06 05:30:17;;;;;;;12.63;11.57;;;;;;;;;;5049617;28;20388;-83
2023/02/06 05:32:43;;;;;;;13.90;12.70;;;;;;;;;;5046994;28;20389;-83
2023/02/06 05:35:09;;;;;;;14.98;13.57;;;;;;;;;;5049211;28;20436;-84
2023/02/06 05:37:37;;;;;;;29.80;20.40;;;;;;;;;;5053688;28;20925;-84
2023/02/06 05:40:03;;;;;;;59.47;32.65;;;;;;;;;;5055043;28;20889;-84
2023/02/06 05:42:29;;;;;;;21.05;17.25;;;;;;;;;;5053881;28;20373;-84
2023/02/06 05:44:55;;;;;;;14.88;13.57;;;;;;;;;;5055289;28;20724;-84
2023/02/06 05:47:21;;;;;;;15.73;14.23;;;;;;;;;;5055143;28;20393;-83
2023/02/06 05:49:47;;;;;;;14.93;13.52;;;;;;;;;;5055235;28;20391;-84
2023/02/06 05:52:13;;;;;;;14.55;13.35;;;;;;;;;;5037561;28;20415;-84
2023/02/06 05:54:39;;;;;;;16.90;15.20;;;;;;;;;;5054962;28;20405;-84
2023/02/06 05:57:06;;;;;;;26.98;19.80;;;;;;;;;;5054930;28;20388;-84
2023/02/06 05:59:32;;;;;;;16.92;15.25;;;;;;;;;;5054870;28;20428;-83
2023/02/06 06:01:58;;;;;;;18.17;16.33;;;;;;;;;;5055007;28;20405;-84
2023/02/06 06:04:24;;;;;;;17.10;15.38;;;;;;;;;;5053831;28;20377;-84
2023/02/06 06:06:50;;;;;;;18.70;16.13;;;;;;;;;;5054813;28;20377;-84
2023/02/06 06:09:16;;;;;;;18.25;16.33;;;;;;;;;;5059026;28;20415;-83
2023/02/06 06:11:42;;;;;;;24.83;18.92;;;;;;;;;;5045853;28;20412;-83
2023/02/06 06:14:08;;;;;;;22.23;17.75;;;;;;;;;;5060012;28;20405;-84
2023/02/06 06:16:34;;;;;;;28.40;19.73;;;;;;;;;;5056790;28;20439;-82
2023/02/06 06:19:00;;;;;;;22.90;17.67;;;;;;;;;;5055417;28;20382;-84
2023/02/06 06:21:26;;;;;;;69.53;32.95;;;;;;;;;;5055147;28;20855;-84
2023/02/06 06:23:52;;;;;;;23.20;17.05;;;;;;;;;;5054804;28;20854;-83
2023/02/06 06:26:19;;;;;;;45.42;25.15;;;;;;;;;;5055479;28;20393;-83
2023/02/06 06:28:45;;;;;;;44.45;25.35;;;;;;;;;;5054285;28;20419;-83
2023/02/06 06:31:11;;;;;;;24.65;17.70;;;;;;;;;;5055268;28;20766;-83
2023/02/06 06:33:38;;;;;;;22.05;17.27;;;;;;;;;;5054821;28;20454;-83
2023/02/06 06:36:05;;;;;;;32.65;20.98;;;;;;;;;;5036333;28;20898;-83
2023/02/06 06:38:31;;;;;;;26.63;18.23;;;;;;;;;;5054489;28;20395;-83
2023/02/06 06:40:57;;;;;;;24.02;17.90;;;;;;;;;;5054161;28;20447;-83
2023/02/06 06:43:23;;;;;;;38.08;22.23;;;;;;;;;;5036141;28;20879;-84
2023/02/06 06:45:49;;;;;;;25.75;17.65;;;;;;;;;;5035792;28;20393;-84
2023/02/06 06:48:15;;;;;;;26.02;18.88;;;;;;;;;;5054140;28;20954;-83
2023/02/06 06:50:41;;;;;;;30.45;19.52;;;;;;;;;;5036115;28;20751;-84
2023/02/06 06:53:07;;;;;;;23.13;16.38;;;;;;;;;;5029420;28;20399;-84
2023/02/06 06:55:33;;;;;;;20.25;15.82;;;;;;;;;;5046813;28;20382;-84
2023/02/06 06:57:59;;;;;;;63.90;32.15;;;;;;;;;;5054137;28;20432;-84
2023/02/06 07:00:25;;;;;;;56.37;29.60;;;;;;;;;;5053576;28;20513;-84
2023/02/06 07:02:51;;;;;;;19.63;14.88;;;;;;;;;;5052933;28;20815;-84
2023/02/06 07:05:17;;;;;;;31.27;19.92;;;;;;;;;;5035987;28;20385;-84
2023/02/06 07:07:44;;;;;;;28.42;19.13;;;;;;;;;;5053573;28;20875;-84
2023/02/06 07:10:10;;;;;;;22.48;16.48;;;;;;;;;;5053427;28;20401;-84
2023/02/06 07:12:36;;;;;;;43.37;27.43;;;;;;;;;;5053129;28;20388;-85
2023/02/06 07:15:02;;;;;;;37.55;28.95;;;;;;;;;;5026786;28;20492;-85
2023/02/06 07:17:29;;;;;;;18.70;15.57;;;;;;;;;;5053518;28;20730;-84
2023/02/06 07:19:55;;;;;;;16.90;14.47;;;;;;;;;;5053480;28;20913;-84
2023/02/06 07:22:21;;;;;;;17.10;13.82;;;;;;;;;;5053404;28;20381;-83
2023/02/06 07:24:47;;;;;;;17.95;14.77;;;;;;;;;;5053431;28;20443;-85
2023/02/06 07:27:13;;;;;;;17.02;13.95;;;;;;;;;;5053474;28;20386;-84
2023/02/06 07:29:39;;;;;;;17.25;14.73;;;;;;;;;;5053894;28;20405;-85
2023/02/06 07:32:05;;;;;;;21.33;15.93;;;;;;;;;;5053382;28;20409;-84
2023/02/06 07:34:31;;;;;;;18.55;15.50;;;;;;;;;;5053250;28;20759;-84
2023/02/06 07:37:00;;;;;;;21.35;16.08;;;;;;;;;;5035533;28;20397;-84
2023/02/06 07:39:26;;;;;;;20.92;16.75;;;;;;;;;;5035000;28;20438;-84
2023/02/06 07:41:52;;;;;;;19.45;15.93;;;;;;;;;;5053864;28;20431;-84
2023/02/06 07:44:18;;;;;;;22.42;16.67;;;;;;;;;;5033534;28;20417;-84
2023/02/06 07:46:44;;;;;;;20.13;16.10;;;;;;;;;;5035558;28;20385;-84
2023/02/06 07:49:13;;;;;;;18.35;16.33;;;;;;;;;;5051692;28;20401;-84
2023/02/06 07:51:39;;;;;;;23.10;16.70;;;;;;;;;;5051490;28;20774;-84
2023/02/06 07:54:05;;;;;;;20.15;16.98;;;;;;;;;;5051145;28;20401;-84
2023/02/06 07:56:31;;;;;;;22.25;17.88;;;;;;;;;;5048442;28;20439;-84
2023/02/06 07:58:57;;;;;;;21.88;17.48;;;;;;;;;;5050763;28;20369;-84
2023/02/06 08:01:23;;;;;;;20.90;17.60;;;;;;;;;;5050889;28;20384;-84
2023/02/06 08:03:50;;;;;;;21.52;16.95;;;;;;;;;;5051193;28;20459;-84
2023/02/06 08:06:16;;;;;;;19.13;16.30;;;;;;;;;;5050203;28;20456;-84
2023/02/06 08:08:46;;;;;;;17.70;15.82;;;;;;;;;;5050706;28;20389;-84
2023/02/06 08:11:13;;;;;;;17.83;15.88;;;;;;;;;;5033043;28;20403;-84
2023/02/06 08:13:39;;;;;;;18.33;15.50;;;;;;;;;;5049758;28;20409;-85
2023/02/06 08:16:07;;;;;;;17.53;15.37;;;;;;;;;;5050804;28;20920;-83
2023/02/06 08:18:33;;;;;;;17.13;14.98;;;;;;;;;;5050347;28;20462;-84
2023/02/06 08:21:05;;;;;;;16.77;14.80;;;;;;;;;;5050229;28;20389;-84
2023/02/06 08:23:31;;;;;;;16.02;14.38;;;;;;;;;;5050511;28;20907;-83
2023/02/06 08:26:05;;;;;;;16.42;14.73;;;;;;;;;;5050673;28;20431;-84
2023/02/06 08:28:33;;;;;;;16.80;15.00;;;;;;;;;;5047382;28;20381;-85
2023/02/06 08:31:00;;;;;;;16.47;14.37;;;;;;;;;;5049250;28;20480;-82
2023/02/06 08:33:26;;;;;;;15.48;13.98;;;;;;;;;;5033397;28;20404;-84
2023/02/06 08:35:52;;;;;;;15.97;14.27;;;;;;;;;;5051694;28;20900;-83
2023/02/06 08:38:18;;;;;;;14.75;13.27;;;;;;;;;;5051980;28;20416;-85
2023/02/06 08:40:44;;;;;;;16.50;14.68;;;;;;;;;;5034315;28;21031;-85
2023/02/06 08:43:10;;;;;;;16.90;15.10;;;;;;;;;;5051971;28;20458;-85
2023/02/06 08:45:37;;;;;;;18.13;15.80;;;;;;;;;;5051141;28;20720;-82
2023/02/06 08:48:03;;;;;;;17.33;15.63;;;;;;;;;;5052087;28;20930;-85
2023/02/06 08:50:29;;;;;;;19.58;16.02;;;;;;;;;;5048038;28;20438;-83
2023/02/06 08:52:55;;;;;;;18.92;16.75;;;;;;;;;;5051551;28;20413;-85
2023/02/06 08:55:21;;;;;;;18.38;15.82;;;;;;;;;;5051109;28;20444;-82
2023/02/06 08:57:47;;;;;;;17.63;15.70;;;;;;;;;;5049515;28;20397;-82
2023/02/06 09:00:13;;;;;;;18.65;15.95;;;;;;;;;;5050624;28;20394;-82
2023/02/06 09:02:39;;;;;;;22.17;17.98;;;;;;;;;;5051311;28;20374;-83
2023/02/06 09:05:08;;;;;;;19.80;17.45;;;;;;;;;;5051518;28;20389;-83
2023/02/06 09:07:34;;;;;;;18.67;16.73;;;;;;;;;;5051292;28;20828;-83
2023/02/06 09:10:00;;;;;;;19.92;17.67;;;;;;;;;;5032170;28;20401;-83
2023/02/06 09:12:26;;;;;;;19.23;17.17;;;;;;;;;;5050847;28;20381;-82
2023/02/06 09:14:52;;;;;;;22.98;17.48;;;;;;;;;;5043146;28;20411;-81
2023/02/06 09:17:18;;;;;;;18.35;14.57;;;;;;;;;;5038032;28;20404;-82
2023/02/06 09:19:44;;;;;;;17.95;14.90;;;;;;;;;;5049393;28;20373;-83
2023/02/06 09:22:10;;;;;;;17.42;13.57;;;;;;;;;;5051012;28;20373;-83
2023/02/06 09:24:37;;;;;;;16.25;13.05;;;;;;;;;;5032959;28;20451;-83
2023/02/06 09:27:03;;;;;;;13.50;11.70;;;;;;;;;;5051500;28;20381;-82
2023/02/06 09:29:30;;;;;;;18.77;14.45;;;;;;;;;;5033987;28;20397;-82
2023/02/06 09:31:56;;;;;;;21.35;15.38;;;;;;;;;;5051746;28;20377;-82
2023/02/06 09:34:24;;;;;;;18.27;14.80;;;;;;;;;;5051209;28;20417;-83
2023/02/06 09:36:53;;;;;;;14.18;12.77;;;;;;;;;;5051297;28;20417;-83
2023/02/06 09:39:19;;;;;;;14.27;12.50;;;;;;;;;;5035855;28;20441;-82
2023/02/06 09:41:56;;;;;;;19.95;17.80;;;;;;;;;;5045036;28;20384;-84
2023/02/06 09:44:52;;;;;;;12.80;11.50;;;;;;;;;;5051420;28;20385;-83
2023/02/06 09:47:23;;;;;;;19.23;14.07;;;;;;;;;;5035215;28;20417;-82
2023/02/06 09:49:52;;;;;;;13.38;11.90;;;;;;;;;;5051713;28;20381;-83
2023/02/06 09:52:21;;;;;;;20.45;14.65;;;;;;;;;;5051427;28;20385;-82
2023/02/06 09:54:58;;;;;;;18.70;13.75;;;;;;;;;;5050651;28;20423;-82
2023/02/06 09:57:33;;;;;;;14.48;12.15;;;;;;;;;;5051282;28;20502;-82
2023/02/06 10:00:00;;;;;;;27.58;17.58;;;;;;;;;;5051120;28;20411;-80
2023/02/06 10:02:26;;;;;;;13.00;11.52;;;;;;;;;;5051472;28;20385;-83
2023/02/06 10:04:55;;;;;;;16.23;12.98;;;;;;;;;;5051138;28;20381;-82
2023/02/06 10:07:30;;;;;;;13.95;11.45;;;;;;;;;;5051337;28;20418;-83
2023/02/06 10:10:10;;;;;;;12.48;11.30;;;;;;;;;;5051079;28;20446;-82
2023/02/06 10:12:39;;;;;;;14.40;11.20;;;;;;;;;;5050980;28;20386;-82
2023/02/06 10:15:14;;;;;;;12.73;11.48;;;;;;;;;;5033140;28;20424;-83
2023/02/06 10:17:54;;;;;;;14.13;11.35;;;;;;;;;;5051200;28;20500;-82
2023/02/06 10:20:32;;;;;;;12.55;11.25;;;;;;;;;;5051793;28;20446;-82
2023/02/06 10:22:58;;;;;;;13.45;11.30;;;;;;;;;;5054887;28;20390;-82
2023/02/06 10:25:27;;;;;;;12.48;11.27;;;;;;;;;;5036801;28;20398;-83
2023/02/06 10:27:57;;;;;;;13.60;12.20;;;;;;;;;;5055240;28;20425;-82
2023/02/06 10:30:32;;;;;;;33.28;22.42;;;;;;;;;;5054374;28;20437;-82
2023/02/06 10:32:58;;;;;;;19.95;11.60;;;;;;;;;;5036867;28;20414;-83
2023/02/06 10:35:31;;;;;;;13.50;11.70;;;;;;;;;;5054294;28;20424;-83
2023/02/06 10:38:22;;;;;;;13.97;12.53;;;;;;;;;;5036845;28;20412;-83
2023/02/06 10:40:54;;;;;;;11.75;10.55;;;;;;;;;;5054053;28;20389;-81
2023/02/06 10:43:22;;;;;;;11.82;10.27;;;;;;;;;;5054315;28;20533;-82
2023/02/06 10:45:51;;;;;;;11.27;9.93;;;;;;;;;;5053235;28;20409;-81
2023/02/06 10:48:28;;;;;;;10.52;9.43;;;;;;;;;;5053960;28;20373;-81
2023/02/06 10:50:57;;;;;;;10.68;9.68;;;;;;;;;;5053854;28;20373;-81
2023/02/06 10:53:26;;;;;;;11.30;9.93;;;;;;;;;;5054382;28;20480;-81
2023/02/06 10:55:56;;;;;;;11.93;10.48;;;;;;;;;;5054245;28;20506;-81
2023/02/06 10:58:28;;;;;;;10.85;9.82;;;;;;;;;;5036225;28;20893;-81
2023/02/06 11:00:55;;;;;;;10.60;9.60;;;;;;;;;;5053695;28;20419;-82
2023/02/06 11:03:23;;;;;;;11.02;9.80;;;;;;;;;;5054511;28;20476;-83
2023/02/06 11:05:51;;;;;;;11.60;9.60;;;;;;;;;;5054534;28;20778;-82
2023/02/06 11:08:32;;;;;;;10.88;9.88;;;;;;;;;;5052153;28;20439;-82
2023/02/06 11:11:05;;;;;;;18.77;10.60;;;;;;;;;;5052015;28;20944;-82
2023/02/06 11:13:36;;;;;;;11.32;9.63;;;;;;;;;;5048999;28;20413;-83
2023/02/06 11:16:08;;;;;;;10.25;9.27;;;;;;;;;;5054214;28;20923;-82
2023/02/06 11:18:42;;;;;;;10.13;9.13;;;;;;;;;;5053398;28;20467;-81
2023/02/06 11:21:09;;;;;;;11.45;10.07;;;;;;;;;;5053629;28;20409;-83
2023/02/06 11:23:35;;;;;;;10.10;8.90;;;;;;;;;;5035796;28;20462;-82
2023/02/06 11:26:17;;;;;;;11.85;8.75;;;;;;;;;;5054202;28;20388;-82
2023/02/06 11:28:51;;;;;;;10.60;9.60;;;;;;;;;;5051984;28;20624;-83
2023/02/06 11:31:18;;;;;;;10.80;9.07;;;;;;;;;;5048989;28;20438;-82
2023/02/06 11:33:44;;;;;;;11.10;10.00;;;;;;;;;;5051594;28;20413;-82
2023/02/06 11:36:28;;;;;;;11.38;10.27;;;;;;;;;;5053635;28;20489;-82
2023/02/06 11:38:58;;;;;;;12.75;10.80;;;;;;;;;;5036080;28;20767;-81
2023/02/06 11:41:25;;;;;;;11.38;10.18;;;;;;;;;;5053341;28;20456;-83
2023/02/06 11:43:52;;;;;;;8.57;7.65;;;;;;;;;;5053233;28;20476;-81
2023/02/06 11:46:22;;;;;;;8.77;7.88;;;;;;;;;;5048226;28;20392;-81
2023/02/06 11:48:54;;;;;;;12.93;8.50;;;;;;;;;;5047213;28;20389;-81
2023/02/06 11:51:21;;;;;;;8.75;7.95;;;;;;;;;;5045004;28;20866;-82
2023/02/06 11:53:57;;;;;;;9.23;8.32;;;;;;;;;;5033947;28;20907;-81
2023/02/06 11:56:23;;;;;;;9.13;8.23;;;;;;;;;;5033249;28;20826;-82
2023/02/06 11:59:00;;;;;;;8.32;7.63;;;;;;;;;;5031671;28;20386;-81
2023/02/06 12:01:27;;;;;;;9.90;7.78;;;;;;;;;;5031675;28;20452;-80
2023/02/06 12:03:55;;;;;;;8.98;8.07;;;;;;;;;;5033570;28;20391;-80
2023/02/06 12:06:31;;;;;;;10.23;8.40;;;;;;;;;;5034687;28;20925;-80
2023/02/06 12:08:59;;;;;;;9.93;8.93;;;;;;;;;;5031404;28;20441;-81
2023/02/06 12:11:37;;;;;;;10.30;8.40;;;;;;;;;;5032922;28;20783;-80
2023/02/06 12:14:06;;;;;;;9.33;8.40;;;;;;;;;;5032042;28;20504;-80
2023/02/06 12:16:33;;;;;;;9.98;8.68;;;;;;;;;;5032933;28;20418;-81
2023/02/06 12:19:00;;;;;;;9.68;8.70;;;;;;;;;;5037705;28;21041;-81
2023/02/06 12:21:29;;;;;;;8.60;7.78;;;;;;;;;;5033309;28;20394;-81
2023/02/06 12:24:04;;;;;;;9.60;8.60;;;;;;;;;;5048511;28;20396;-80
2023/02/06 12:26:31;;;;;;;9.43;7.90;;;;;;;;;;5044312;28;20389;-79
2023/02/06 12:29:08;;;;;;;8.93;7.55;;;;;;;;;;5037084;28;20389;-80
2023/02/06 12:31:37;;;;;;;8.25;7.35;;;;;;;;;;5035050;28;20437;-79
2023/02/06 12:34:23;;;;;;;7.53;6.73;;;;;;;;;;5051653;28;21062;-80
2023/02/06 12:36:59;;;;;;;15.65;11.95;;;;;;;;;;5029941;28;20460;-81
2023/02/06 12:39:27;;;;;;;14.50;12.90;;;;;;;;;;5035183;28;20402;-82
2023/02/06 12:41:56;;;;;;;9.75;8.75;;;;;;;;;;5046277;28;20441;-81
2023/02/06 12:44:26;;;;;;;10.73;9.68;;;;;;;;;;5033007;28;20438;-81
2023/02/06 12:46:59;;;;;;;16.95;14.50;;;;;;;;;;5051267;28;20428;-81
2023/02/06 12:49:43;;;;;;;8.25;7.45;;;;;;;;;;5051172;28;20425;-81
2023/02/06 12:52:14;;;;;;;8.48;7.40;;;;;;;;;;5052336;28;20472;-82
2023/02/06 12:55:06;;;;;;;7.93;7.03;;;;;;;;;;5052328;28;20468;-82
2023/02/06 12:57:33;;;;;;;9.05;7.50;;;;;;;;;;5031636;28;20443;-82
2023/02/06 13:00:08;;;;;;;10.05;7.50;;;;;;;;;;5052529;28;20385;-82
2023/02/06 13:02:34;;;;;;;8.77;7.43;;;;;;;;;;5034527;28;20858;-82
2023/02/06 13:05:04;;;;;;;8.48;7.57;;;;;;;;;;5052427;28;20385;-82
2023/02/06 13:07:30;;;;;;;9.52;7.63;;;;;;;;;;5052271;28;20946;-82
2023/02/06 13:10:01;;;;;;;8.00;7.20;;;;;;;;;;5051378;28;20944;-82
2023/02/06 13:12:28;;;;;;;8.98;7.20;;;;;;;;;;5054792;28;20466;-81
2023/02/06 13:14:59;;;;;;;7.93;7.20;;;;;;;;;;5054328;28;20450;-81
2023/02/06 13:17:35;;;;;;;9.63;7.60;;;;;;;;;;5051591;28;20508;-82
2023/02/06 13:20:02;;;;;;;8.95;7.75;;;;;;;;;;5051871;28;20453;-82
2023/02/06 13:22:36;;;;;;;7.85;7.03;;;;;;;;;;5034866;28;20459;-81
2023/02/06 13:25:22;;;;;;;7.72;6.63;;;;;;;;;;5034626;28;20985;-82
2023/02/06 13:27:48;;;;;;;7.28;6.65;;;;;;;;;;5052613;28;20468;-82
2023/02/06 13:30:16;;;;;;;7.43;6.73;;;;;;;;;;5052025;28;20513;-82
2023/02/06 13:32:44;;;;;;;7.53;6.72;;;;;;;;;;5052356;28;20420;-82
2023/02/06 13:35:16;;;;;;;7.10;6.45;;;;;;;;;;5051885;28;20867;-82
2023/02/06 13:37:44;;;;;;;10.18;7.20;;;;;;;;;;5051490;28;20459;-82
2023/02/06 13:40:19;;;;;;;8.20;7.00;;;;;;;;;;5051822;28;20408;-82
2023/02/06 13:42:48;;;;;;;7.10;6.40;;;;;;;;;;5051975;28;20441;-82
2023/02/06 13:45:19;;;;;;;7.45;6.15;;;;;;;;;;5052112;28;20418;-82
2023/02/06 13:48:04;;;;;;;9.90;6.68;;;;;;;;;;5047867;28;20445;-82
2023/02/06 13:50:36;;;;;;;7.68;6.85;;;;;;;;;;5050467;28;20380;-82
2023/02/06 13:53:14;;;;;;;7.90;7.10;;;;;;;;;;5051068;28;20455;-82
2023/02/06 13:55:47;;;;;;;8.10;7.30;;;;;;;;;;5052145;28;20445;-83
2023/02/06 13:58:34;;;;;;;8.15;7.10;;;;;;;;;;5055095;28;20377;-82
2023/02/06 14:01:00;;;;;;;7.45;6.68;;;;;;;;;;5037048;28;20377;-83
2023/02/06 14:03:31;;;;;;;7.40;6.70;;;;;;;;;;5037076;28;20389;-83
2023/02/06 14:06:15;;;;;;;7.28;6.57;;;;;;;;;;5054462;28;20461;-82
2023/02/06 14:09:00;;;;;;;8.25;7.40;;;;;;;;;;5036501;28;20439;-83
2023/02/06 14:14:47;;;;;;;9.00;7.50;;;;;;;;;;5000639;28;20463;-82
2023/02/06 14:17:19;;;;;;;9.10;8.10;;;;;;;;;;5054473;28;20418;-80
2023/02/06 14:20:04;;;;;;;9.48;7.40;;;;;;;;;;5054521;28;20532;-80
2023/02/06 14:22:36;;;;;;;8.05;7.25;;;;;;;;;;5054174;28;20520;-80
2023/02/06 14:25:20;;;;;;;8.68;6.72;;;;;;;;;;5051531;28;20429;-79
2023/02/06 14:28:02;;;;;;;9.27;7.53;;;;;;;;;;5039570;28;20913;-79
2023/02/06 14:30:37;;;;;;;9.00;7.47;;;;;;;;;;5041618;28;20450;-82
2023/02/06 14:33:04;;;;;;;8.52;7.28;;;;;;;;;;5054176;28;20455;-82
2023/02/06 14:35:30;;;;;;;7.82;7.03;;;;;;;;;;5053653;28;20420;-82
2023/02/06 14:38:15;;;;;;;8.38;7.22;;;;;;;;;;5043460;28;20386;-82
2023/02/06 14:40:41;;;;;;;8.43;7.63;;;;;;;;;;5053862;28;20377;-82